Airfield :
LOGIN :

Register | Disclaimer

   EN    FR    IT 

 










Legend :    VFR   Marginal VFR   IFR   Intensive IFR   Very Intensive IFR
Visi :
Ceiling :
>= 8 km
>= 3000ft
5 to 8 km
1000 to 3000 ft
1500m to 5 km
500 to 1000 ft
800 to 1500m
200 to 500 ft
< 800m
< 200 ft
Symbols :   Thunderstorms  Fog  Heavy snow  Heavy precipitations  Wind > 20 kt
SIGMETs :     Misc.  Thunderstorms  Icing  Turbulence  Mountain Waves  Volcanic Ashes






- Airport Elevation : 1273 ft
- IATA code : LJU


LJLJ - Ljubljana

CURRENT METAR :
  • 172030Z 28004KT 9999 -SN FEW020 BKN030 M05/M06 Q1020 NOSIG

EXPIRED METARs :
  • 172000Z 30003KT 9999 -SN FEW020 BKN030 M06/M07 Q1020 NOSIG
  • 171930Z 29001KT 9999 -SN FEW020 SCT030 BKN060 M06/M07 Q1020 NOSIG
  • 171900Z VRB02KT 9999 FEW020 SCT060 M07/M08 Q1020 NOSIG
  • 171830Z 29002KT 9999 FEW050 BKN060 M08/M09 Q1019 NOSIG
  • 171800Z 00000KT 9999 FEW050 SCT063 M07/M08 Q1018 NOSIG

TAF TAF LJLJ
Valid from the 17 at 18:00 until the 18 at 18:00 UTC


171700Z 1718/1818 30003KT 9999 FEW070
PROB40
TEMPO 1720/1810 BKN015
PROB30
TEMPO 1801/1808 5000 BR OVC008



MET'MAP, your aeronautical weather chart ! - Copyright ORBIFLY December 2007 - Disclaimer

ORBIFLY MET'MAP TEAM :

Programming & Development : Alexandra Zaïnal
Concept & original design : Baudouin d'Aumeries
Assistance for programming : Marc-Olivier Méhu
Technical & hardware support : Manuel Goepfert

Contact : metmap@orbifly.com




SOURCES & CREDITS :

   NOAA